createdAt,value
2019-01-14T00:00:02.223Z,5.34
2019-01-14T00:05:06.331Z,5.44
2019-01-14T00:10:10.379Z,5.53
2019-01-14T00:15:14.560Z,5.55
2019-01-14T00:20:18.569Z,5.56
2019-01-14T00:25:22.670Z,5.42
2019-01-14T00:30:26.756Z,5.33
2019-01-14T00:35:30.745Z,5.23
2019-01-14T00:40:34.912Z,5.23
2019-01-14T00:45:39.269Z,5.14
2019-01-14T00:50:43.276Z,5.14
2019-01-14T00:55:47.347Z,5.14
2019-01-14T01:00:52.528Z,5.10
2019-01-14T01:05:58.088Z,5.10
2019-01-14T01:11:02.083Z,5.09
2019-01-14T01:16:06.135Z,5.05
2019-01-14T01:21:10.209Z,5.12
2019-01-14T01:26:14.247Z,4.92
2019-01-14T01:31:18.332Z,4.71
2019-01-14T01:36:22.383Z,4.59
2019-01-14T01:41:26.767Z,4.59
2019-01-14T01:46:30.810Z,4.73
2019-01-14T01:51:34.856Z,4.73
2019-01-14T01:56:38.960Z,4.66
2019-01-14T02:01:43.005Z,4.57
2019-01-14T02:06:47.045Z,4.51
2019-01-14T02:11:51.076Z,4.56
2019-01-14T02:16:55.131Z,4.54
2019-01-14T02:21:59.495Z,4.65
2019-01-14T02:27:03.542Z,4.69
2019-01-14T02:32:07.578Z,4.70
2019-01-14T02:37:11.609Z,4.69
2019-01-14T02:42:16.165Z,4.65
2019-01-14T02:47:20.217Z,4.49
2019-01-14T02:52:24.226Z,4.45
2019-01-14T02:57:28.336Z,4.38
2019-01-14T03:02:32.389Z,4.40
2019-01-14T03:07:38.066Z,4.30
2019-01-14T03:12:42.098Z,4.26
2019-01-14T03:17:46.129Z,4.27
2019-01-14T03:22:50.477Z,4.23
2019-01-14T03:27:54.514Z,4.19
2019-01-14T03:32:58.587Z,4.20
2019-01-14T03:38:02.625Z,4.16
2019-01-14T03:43:06.634Z,4.14
2019-01-14T03:48:10.699Z,4.06
2019-01-14T03:53:14.784Z,3.98
2019-01-14T03:58:18.806Z,3.95
2019-01-14T04:03:22.846Z,3.89
2019-01-14T04:08:27.165Z,3.90
2019-01-14T04:13:31.189Z,3.83
2019-01-14T04:18:35.207Z,3.77
2019-01-14T04:23:39.209Z,3.65
2019-01-14T04:28:43.554Z,3.48
2019-01-14T04:33:47.636Z,3.30
2019-01-14T04:38:51.984Z,3.08
2019-01-14T04:43:56.080Z,2.99
2019-01-14T04:49:00.192Z,2.76
2019-01-14T04:54:04.260Z,2.79
2019-01-14T04:59:08.348Z,2.72
2019-01-14T05:04:12.396Z,2.59
2019-01-14T05:09:16.490Z,2.46
2019-01-14T05:14:20.550Z,2.65
2019-01-14T05:19:24.626Z,2.74
2019-01-14T05:24:28.697Z,2.59
2019-01-14T05:29:33.011Z,2.61
2019-01-14T05:34:37.039Z,2.64
2019-01-14T05:39:41.179Z,2.47
2019-01-14T05:44:45.451Z,2.66
2019-01-14T05:49:49.928Z,2.58
2019-01-14T05:54:54.337Z,2.46
2019-01-14T05:59:58.331Z,2.33
2019-01-14T06:05:02.367Z,2.45
2019-01-14T06:10:06.858Z,2.34
2019-01-14T06:15:11.643Z,2.44
2019-01-14T06:20:16.289Z,2.43
2019-01-14T06:25:20.661Z,2.42
2019-01-14T06:30:26.425Z,2.30
2019-01-14T06:35:30.865Z,2.29
2019-01-14T06:40:34.904Z,2.49
2019-01-14T06:45:39.324Z,2.40
2019-01-14T06:50:43.547Z,2.43
2019-01-14T06:55:47.631Z,2.62
2019-01-14T07:00:51.680Z,2.53
2019-01-14T07:05:55.704Z,2.55
2019-01-14T07:11:00.449Z,2.57
2019-01-14T07:16:04.562Z,2.52
2019-01-14T07:21:08.648Z,2.45
2019-01-14T07:26:13.120Z,2.33
2019-01-14T07:31:17.217Z,2.36
2019-01-14T07:36:21.353Z,2.31
2019-01-14T07:41:25.494Z,2.30
2019-01-14T07:46:29.517Z,2.34
2019-01-14T07:51:33.588Z,2.22
2019-01-14T07:56:37.677Z,2.15
2019-01-14T08:01:41.711Z,2.15
2019-01-14T08:06:45.846Z,2.12
2019-01-14T08:11:51.063Z,2.09
2019-01-14T08:16:55.123Z,2.20
2019-01-14T08:21:59.230Z,2.19
2019-01-14T08:27:03.308Z,2.30
2019-01-14T08:32:07.375Z,2.33
2019-01-14T08:37:11.404Z,2.35
2019-01-14T08:42:15.767Z,2.32
2019-01-14T08:47:20.571Z,2.34
2019-01-14T08:52:24.657Z,2.36
2019-01-14T08:57:28.768Z,2.35
2019-01-14T09:02:32.790Z,2.30
2019-01-14T09:07:36.813Z,2.28
2019-01-14T09:12:40.862Z,2.17
2019-01-14T09:17:45.207Z,2.25
2019-01-14T09:22:49.498Z,2.31
2019-01-14T09:27:53.520Z,2.42
2019-01-14T09:32:57.660Z,2.55
2019-01-14T09:38:02.060Z,2.61
2019-01-14T09:43:06.136Z,2.72
2019-01-14T09:48:10.139Z,2.87
2019-01-14T09:53:14.206Z,2.90
2019-01-14T09:58:18.275Z,2.94
2019-01-14T10:03:22.289Z,3.02
2019-01-14T10:08:26.360Z,3.13
2019-01-14T10:13:30.372Z,3.45
2019-01-14T10:18:34.368Z,3.49
2019-01-14T10:23:38.380Z,4.51
2019-01-14T10:28:42.367Z,4.90
2019-01-14T10:33:46.349Z,4.73
2019-01-14T10:38:50.674Z,4.68
2019-01-14T10:43:54.794Z,4.28
2019-01-14T10:48:58.823Z,4.32
2019-01-14T10:54:02.838Z,4.26
2019-01-14T10:59:06.839Z,4.60
2019-01-14T11:04:10.866Z,4.55
2019-01-14T11:09:15.073Z,4.77
2019-01-14T11:14:19.061Z,4.01
2019-01-14T11:19:23.039Z,3.84
2019-01-14T11:24:31.300Z,4.24
2019-01-14T11:29:35.315Z,3.78
2019-01-14T11:34:39.364Z,4.15
2019-01-14T11:39:43.473Z,4.31
2019-01-14T11:44:47.532Z,4.43
2019-01-14T11:49:51.586Z,4.20
2019-01-14T11:54:55.581Z,4.09
2019-01-14T11:59:59.616Z,3.54
2019-01-14T12:05:04.112Z,3.80
2019-01-14T12:10:08.653Z,3.45
2019-01-14T12:15:15.788Z,3.28
2019-01-14T12:20:19.780Z,3.26
2019-01-14T12:25:23.811Z,3.32
2019-01-14T12:30:30.464Z,3.30
2019-01-14T12:35:34.618Z,3.23
2019-01-14T12:40:38.615Z,3.30
2019-01-14T12:45:42.686Z,3.30
2019-01-14T12:50:46.718Z,3.41
2019-01-14T12:55:50.789Z,3.44
2019-01-14T13:00:54.827Z,3.27
2019-01-14T13:05:58.831Z,3.19
2019-01-14T13:11:02.832Z,3.13
2019-01-14T13:16:07.019Z,3.07
2019-01-14T13:21:11.065Z,3.31
2019-01-14T13:26:15.068Z,3.35
2019-01-14T13:31:19.083Z,3.20
2019-01-14T13:36:23.211Z,2.99
2019-01-14T13:41:27.194Z,2.84
2019-01-14T13:46:31.223Z,2.73
2019-01-14T13:51:35.219Z,2.65
2019-01-14T13:56:39.277Z,2.79
2019-01-14T14:01:43.423Z,2.58
2019-01-14T14:06:47.375Z,2.60
2019-01-14T14:11:51.439Z,2.61
2019-01-14T14:16:55.444Z,2.51
2019-01-14T14:21:59.563Z,2.57
2019-01-14T14:27:03.593Z,2.53
2019-01-14T14:32:07.612Z,2.49
2019-01-14T14:37:11.657Z,2.40
2019-01-14T14:42:16.749Z,2.30
2019-01-14T14:47:20.733Z,2.18
2019-01-14T14:52:24.758Z,2.09
2019-01-14T14:57:28.929Z,1.93
2019-01-14T15:02:32.966Z,1.82
2019-01-14T15:07:37.076Z,1.75
2019-01-14T15:12:41.151Z,1.68
2019-01-14T15:17:45.353Z,1.58
2019-01-14T15:22:49.388Z,1.48
2019-01-14T15:27:53.400Z,1.48
2019-01-14T15:32:57.426Z,1.44
2019-01-14T15:38:01.501Z,1.29
2019-01-14T15:43:05.533Z,1.24
2019-01-14T15:48:09.542Z,1.25
2019-01-14T15:53:14.808Z,1.16
2019-01-14T15:58:20.325Z,1.00
2019-01-14T16:03:24.727Z,0.92
2019-01-14T16:08:29.107Z,0.78
2019-01-14T16:13:34.029Z,0.76
2019-01-14T16:18:38.769Z,0.64
2019-01-14T16:23:42.852Z,0.67
2019-01-14T16:28:47.453Z,0.54
2019-01-14T16:33:51.626Z,0.66
2019-01-14T16:38:55.777Z,0.66
2019-01-14T16:44:00.745Z,0.64
2019-01-14T16:49:05.950Z,0.43
2019-01-14T16:54:10.581Z,0.49
2019-01-14T16:59:15.076Z,0.44
2019-01-14T17:04:20.663Z,0.39
2019-01-14T17:09:25.434Z,0.51
2019-01-14T17:14:29.983Z,0.53
2019-01-14T17:19:34.143Z,0.55
2019-01-14T17:24:38.705Z,0.54
2019-01-14T17:29:43.109Z,0.61
2019-01-14T17:34:47.602Z,0.56
2019-01-14T17:39:51.592Z,0.59
2019-01-14T17:44:55.646Z,0.76
2019-01-14T17:49:59.682Z,0.60
2019-01-14T17:55:04.228Z,0.70
2019-01-14T18:00:20.473Z,0.65
2019-01-14T18:05:24.617Z,0.71
2019-01-14T18:10:29.593Z,0.45
2019-01-14T18:15:36.024Z,0.57
2019-01-14T18:20:40.282Z,0.66
2019-01-14T18:25:44.470Z,0.58
2019-01-14T18:30:48.699Z,0.52
2019-01-14T18:35:52.737Z,0.51
2019-01-14T18:40:56.878Z,0.49
2019-01-14T18:46:01.815Z,0.39
2019-01-14T18:51:06.758Z,0.39
2019-01-14T18:56:11.741Z,0.49
2019-01-14T19:01:16.501Z,0.52
2019-01-14T19:06:21.420Z,0.47
2019-01-14T19:11:26.328Z,0.35
2019-01-14T19:16:30.921Z,0.41
2019-01-14T19:21:35.281Z,0.46
2019-01-14T19:26:39.969Z,0.36
2019-01-14T19:31:44.242Z,0.41
2019-01-14T19:36:48.829Z,0.53
2019-01-14T19:41:56.643Z,0.57
2019-01-14T19:47:02.070Z,0.42
2019-01-14T19:52:08.079Z,0.49
2019-01-14T19:57:14.131Z,0.52
2019-01-14T20:02:19.891Z,0.53
2019-01-14T20:07:26.661Z,0.35
2019-01-14T20:12:32.748Z,0.35
2019-01-14T20:17:38.150Z,0.46
2019-01-14T20:22:43.909Z,0.51
2019-01-14T20:27:48.704Z,0.31
2019-01-14T20:32:56.336Z,0.47
2019-01-14T20:38:01.381Z,0.38
2019-01-14T20:43:06.320Z,0.29
2019-01-14T20:48:10.439Z,0.39
2019-01-14T20:53:15.195Z,0.30
2019-01-14T20:58:24.082Z,0.26
2019-01-14T21:03:30.100Z,0.15
2019-01-14T21:08:35.078Z,0.25
2019-01-14T21:13:39.681Z,0.08
2019-01-14T21:18:44.460Z,0.17
2019-01-14T21:23:48.671Z,0.07
2019-01-14T21:28:54.642Z,0.20
2019-01-14T21:34:00.520Z,0.18
2019-01-14T21:39:09.131Z,0.03
2019-01-14T21:44:13.912Z,0.04
2019-01-14T21:49:18.948Z,-0.02
2019-01-14T21:54:25.058Z,0.02
2019-01-14T21:59:29.279Z,-0.07
2019-01-14T22:04:33.440Z,0.05
2019-01-14T22:09:37.542Z,0.03
2019-01-14T22:14:41.587Z,-0.15
2019-01-14T22:19:45.688Z,-0.06
2019-01-14T22:24:49.893Z,0.14
2019-01-14T22:29:54.030Z,0.10
2019-01-14T22:34:59.224Z,0.08
2019-01-14T22:40:05.479Z,0.30
2019-01-14T22:45:11.252Z,0.18
2019-01-14T22:50:15.997Z,0.53
2019-01-14T22:55:20.186Z,0.81
2019-01-14T23:00:50.297Z,0.92
2019-01-14T23:05:54.591Z,0.89
2019-01-14T23:10:58.585Z,1.06
2019-01-14T23:16:02.597Z,1.13
2019-01-14T23:21:07.254Z,1.22
2019-01-14T23:26:11.390Z,1.28
2019-01-14T23:31:15.416Z,1.46
2019-01-14T23:36:19.474Z,1.52
2019-01-14T23:41:24.072Z,1.56
2019-01-14T23:46:28.179Z,1.63
2019-01-14T23:51:32.280Z,1.68
2019-01-14T23:56:36.441Z,1.71
